Current Weather

Columbia Gorge Rgnl/the Dalles Muni

The Dalles, Washington (KDLS)

Report from: Tuesday, February 27, 2024 12:53 AM PST
Current time: Tuesday, February 27, 2024 1:58 AM PST

Nearby weather – Weather history – Daily summaries
Weather forecast

Present weatherLight snow
Temperature3.3°C (37.9°F)
Wind chill-0.3°C (31.5°F)
Dew point-2.8°C (27.0°F)
Winds 8 kts (4.1 m/s, 9.2 mph) West (260°)
Visibility9 mi. (14.5 km)
Clouds Few clouds 2,600 ft. (792 m)
Ceiling: Broken clouds 4,900 ft. (1,494 m)
Overcast 10,000 ft. (3,048 m)
Altimeter29.98 in.Hg (1015 mB)
PrecipitiationTrace
Precip. events Snow began 12:48 AM
Precip last 3 hoursTrace
Relative humidity64 %
Density altitude-1,418 ft. (-432 m)
Sea-level pressure101.6 kPa (1016 mB, 29.99 in.Hg)
Remarks Fully automated report
System requires maintenance
Automated weather observing station with precipitation discriminator
Pressure rising more quickly
Flight conditions Visual Meteorological Conditions
Raw dataKDLS 270853Z AUTO 26008KT 9SM -SN FEW026 BKN049 OVC100 03/M03 A2998 RMK AO2 SNB48 SLP155 P0000 60000 T00331028 53009 $
An error has occurred. This application may no longer respond until reloaded. Reload 🗙